createdAt,value
2019-04-25T00:02:07.894Z,69.10
2019-04-25T00:04:38.728Z,69.20
2019-04-25T00:07:09.035Z,69.00
2019-04-25T00:09:44.054Z,68.80
2019-04-25T00:12:15.513Z,68.90
2019-04-25T00:14:48.071Z,69.20
2019-04-25T00:17:21.370Z,69.40
2019-04-25T00:19:52.815Z,69.60
2019-04-25T00:22:24.841Z,69.60
2019-04-25T00:25:15.933Z,69.60
2019-04-25T00:27:43.270Z,69.60
2019-04-25T00:30:12.221Z,69.30
2019-04-25T00:32:44.078Z,69.00
2019-04-25T00:35:14.603Z,69.30
2019-04-25T00:37:45.474Z,68.80
2019-04-25T00:40:16.278Z,69.00
2019-04-25T00:42:46.488Z,68.80
2019-04-25T00:45:16.685Z,68.80
2019-04-25T00:47:47.733Z,68.80
2019-04-25T00:50:17.941Z,70.10
2019-04-25T00:52:48.509Z,68.90
2019-04-25T00:55:26.891Z,69.50
2019-04-25T00:57:53.678Z,69.30
2019-04-25T01:00:28.122Z,69.10
2019-04-25T01:03:01.591Z,69.70
2019-04-25T01:05:31.688Z,69.40
2019-04-25T01:08:02.180Z,69.70
2019-04-25T01:10:32.406Z,69.40
2019-04-25T01:13:03.084Z,69.30
2019-04-25T01:15:34.349Z,69.40
2019-04-25T01:18:05.263Z,69.40
2019-04-25T01:20:35.259Z,69.00
2019-04-25T01:23:05.321Z,69.40
2019-04-25T01:25:40.887Z,69.30
2019-04-25T01:28:07.320Z,69.00
2019-04-25T01:30:37.453Z,68.80
2019-04-25T01:33:08.165Z,68.60
2019-04-25T01:35:39.998Z,68.90
2019-04-25T01:38:13.436Z,69.20
2019-04-25T01:40:57.327Z,69.60
2019-04-25T01:43:48.438Z,68.90
2019-04-25T01:46:20.345Z,69.20
2019-04-25T01:48:50.605Z,69.30
2019-04-25T01:51:20.757Z,69.30
2019-04-25T01:53:50.954Z,70.10
2019-04-25T01:56:21.165Z,68.60
2019-04-25T01:58:51.579Z,69.10
2019-04-25T02:01:21.978Z,69.40
2019-04-25T02:03:54.296Z,69.70
2019-04-25T02:06:24.821Z,70.30
2019-04-25T02:08:56.261Z,69.60
2019-04-25T02:11:28.273Z,69.60
2019-04-25T02:13:58.894Z,69.90
2019-04-25T02:16:30.103Z,69.70
2019-04-25T02:19:01.966Z,70.50
2019-04-25T02:21:33.475Z,70.10
2019-04-25T02:24:05.465Z,69.60
2019-04-25T02:26:35.810Z,69.40
2019-04-25T02:29:06.090Z,69.50
2019-04-25T02:31:36.292Z,69.80
2019-04-25T02:34:08.661Z,70.10
2019-04-25T02:36:38.251Z,70.00
2019-04-25T02:39:14.745Z,70.10
2019-04-25T02:41:44.607Z,70.40
2019-04-25T02:44:14.774Z,69.90
2019-04-25T02:46:49.263Z,70.10
2019-04-25T02:49:34.823Z,70.10
2019-04-25T02:51:56.136Z,70.20
2019-04-25T02:54:28.868Z,70.30
2019-04-25T02:56:59.990Z,70.40
2019-04-25T02:59:30.550Z,70.20
2019-04-25T03:02:00.844Z,70.30
2019-04-25T03:04:31.562Z,70.50
2019-04-25T03:07:02.659Z,71.00
2019-04-25T03:09:35.273Z,70.90
2019-04-25T03:12:07.361Z,70.30
2019-04-25T03:14:37.458Z,70.30
2019-04-25T03:17:09.746Z,70.30
2019-04-25T03:19:56.405Z,70.70
2019-04-25T03:22:28.040Z,70.80
2019-04-25T03:24:59.702Z,70.50
2019-04-25T03:27:30.379Z,70.80
2019-04-25T03:30:01.940Z,71.90
2019-04-25T03:32:35.600Z,71.00
2019-04-25T03:35:07.060Z,71.60
2019-04-25T03:37:37.298Z,71.40
2019-04-25T03:40:09.597Z,71.10
2019-04-25T03:42:39.750Z,70.80
2019-04-25T03:45:09.962Z,70.50
2019-04-25T03:47:40.034Z,70.10
2019-04-25T03:50:10.256Z,70.00
2019-04-25T03:52:40.790Z,70.70
2019-04-25T03:55:10.929Z,70.00
2019-04-25T03:57:41.086Z,70.30
2019-04-25T04:00:11.133Z,70.20
2019-04-25T04:02:41.276Z,72.00
2019-04-25T04:05:11.544Z,71.10
2019-04-25T04:07:41.534Z,70.10
2019-04-25T04:10:13.729Z,70.10
2019-04-25T04:12:44.387Z,70.50
2019-04-25T04:15:15.983Z,70.40
2019-04-25T04:17:53.744Z,70.60
2019-04-25T04:20:29.250Z,71.00
2019-04-25T04:23:05.605Z,71.70
2019-04-25T04:25:36.021Z,70.60
2019-04-25T04:28:06.233Z,70.60
2019-04-25T04:30:36.762Z,70.70
2019-04-25T04:33:06.967Z,70.90
2019-04-25T04:35:37.227Z,71.30
2019-04-25T04:38:08.121Z,71.00
2019-04-25T04:40:38.338Z,71.00
2019-04-25T04:43:08.398Z,71.30
2019-04-25T04:45:38.902Z,71.80
2019-04-25T04:48:09.035Z,71.30
2019-04-25T04:50:39.185Z,71.60
2019-04-25T04:53:09.286Z,71.40
2019-04-25T04:55:39.248Z,71.80
2019-04-25T04:58:10.379Z,72.10
2019-04-25T05:00:41.326Z,71.90
2019-04-25T05:03:31.206Z,71.90
2019-04-25T05:06:13.936Z,72.50
2019-04-25T05:08:51.374Z,72.20
2019-04-25T05:11:23.550Z,72.70
2019-04-25T05:13:54.136Z,72.80
2019-04-25T05:16:24.405Z,72.90
2019-04-25T05:18:55.306Z,73.00
2019-04-25T05:21:25.944Z,72.60
2019-04-25T05:23:56.309Z,72.70
2019-04-25T05:26:26.514Z,72.50
2019-04-25T05:28:56.598Z,72.30
2019-04-25T05:31:28.370Z,71.90
2019-04-25T05:33:58.571Z,71.80
2019-04-25T05:36:30.354Z,71.40
2019-04-25T05:39:00.489Z,70.90
2019-04-25T05:41:33.734Z,70.60
2019-04-25T05:44:04.807Z,70.50
2019-04-25T05:46:36.414Z,70.10
2019-04-25T05:49:06.564Z,69.90
2019-04-25T05:51:36.634Z,69.50
2019-04-25T05:54:06.836Z,69.60
2019-04-25T05:56:37.001Z,68.90
2019-04-25T05:59:07.113Z,68.70
2019-04-25T06:01:38.271Z,68.30
2019-04-25T06:04:08.267Z,68.00
2019-04-25T06:06:38.842Z,67.60
2019-04-25T06:09:10.727Z,67.50
2019-04-25T06:11:48.611Z,67.50
2019-04-25T06:14:20.398Z,67.00
2019-04-25T06:16:53.566Z,66.80
2019-04-25T06:19:43.610Z,66.30
2019-04-25T06:22:24.208Z,66.20
2019-04-25T06:24:55.657Z,65.60
2019-04-25T06:27:28.396Z,64.80
2019-04-25T06:30:00.975Z,64.30
2019-04-25T06:32:35.070Z,64.90
2019-04-25T06:35:06.225Z,63.60
2019-04-25T06:37:36.582Z,62.80
2019-04-25T06:40:08.741Z,62.80
2019-04-25T06:42:39.320Z,61.80
2019-04-25T06:45:18.445Z,62.10
2019-04-25T06:48:05.058Z,61.00
2019-04-25T06:50:35.434Z,61.40
2019-04-25T06:53:05.630Z,62.30
2019-04-25T06:55:35.770Z,60.80
2019-04-25T06:58:12.075Z,60.60
2019-04-25T07:00:42.639Z,61.80
2019-04-25T07:03:10.003Z,61.90
2019-04-25T07:05:40.837Z,61.30
2019-04-25T07:08:11.126Z,59.70
2019-04-25T07:10:42.257Z,63.90
2019-04-25T07:13:14.188Z,69.00
2019-04-25T07:15:44.086Z,73.80
2019-04-25T07:18:14.231Z,78.60
2019-04-25T07:20:45.356Z,85.30
2019-04-25T07:23:15.598Z,90.10
2019-04-25T07:25:47.970Z,89.40
2019-04-25T07:28:27.130Z,84.70
2019-04-25T07:31:08.425Z,85.90
2019-04-25T07:33:48.075Z,86.50
2019-04-25T07:36:19.593Z,86.20
2019-04-25T07:38:49.786Z,86.90
2019-04-25T07:41:20.026Z,86.00
2019-04-25T07:43:51.306Z,86.30
2019-04-25T07:46:21.420Z,87.00
2019-04-25T07:48:53.431Z,87.80
2019-04-25T07:51:23.854Z,88.20
2019-04-25T07:53:53.999Z,88.80
2019-04-25T07:56:24.159Z,88.80
2019-04-25T07:58:54.863Z,87.50
2019-04-25T08:01:25.132Z,87.50
2019-04-25T08:03:55.202Z,86.80
2019-04-25T08:06:25.336Z,87.40
2019-04-25T08:08:55.551Z,90.60
2019-04-25T08:11:25.857Z,87.20
2019-04-25T08:14:03.988Z,87.10
2019-04-25T08:16:37.186Z,86.60
2019-04-25T08:19:07.507Z,86.80
2019-04-25T08:21:38.397Z,87.80
2019-04-25T08:24:08.762Z,89.80
2019-04-25T08:26:39.415Z,90.50
2019-04-25T08:29:09.543Z,85.00
2019-04-25T08:31:39.803Z,84.50
2019-04-25T08:34:11.523Z,84.60
2019-04-25T08:36:41.658Z,84.70
2019-04-25T08:39:14.322Z,88.00
2019-04-25T08:41:45.575Z,90.20
2019-04-25T08:44:15.873Z,89.20
2019-04-25T08:46:48.680Z,90.40
2019-04-25T08:49:25.490Z,89.00
2019-04-25T08:51:57.394Z,88.10
2019-04-25T08:54:29.110Z,87.40
2019-04-25T08:57:00.981Z,84.70
2019-04-25T08:59:42.397Z,86.10
2019-04-25T09:02:20.794Z,87.30
2019-04-25T09:09:58.886Z,90.00
2019-04-25T09:12:28.958Z,86.80
2019-04-25T09:22:28.163Z,90.90
2019-04-25T10:00:31.090Z,90.00
2019-04-25T10:03:01.330Z,79.70
2019-04-25T11:00:52.916Z,84.90
2019-04-25T11:08:35.260Z,86.10
2019-04-25T11:26:06.374Z,87.10
2019-04-25T11:28:38.209Z,55.40
2019-04-25T11:31:10.161Z,55.50
2019-04-25T11:33:40.270Z,55.90
2019-04-25T11:36:10.483Z,55.40
2019-04-25T11:38:48.050Z,55.70
2019-04-25T11:41:19.825Z,55.40
2019-04-25T11:43:50.751Z,55.90
2019-04-25T11:46:21.042Z,55.30
2019-04-25T11:48:51.253Z,52.40
2019-04-25T11:51:21.545Z,51.80
2019-04-25T11:53:51.615Z,52.00
2019-04-25T11:56:21.794Z,52.40
2019-04-25T11:58:53.490Z,52.20
2019-04-25T12:01:24.305Z,52.60
2019-04-25T12:03:56.063Z,52.80
2019-04-25T12:06:26.368Z,52.80
2019-04-25T12:08:56.487Z,52.60
2019-04-25T12:11:26.502Z,52.90
2019-04-25T12:13:56.935Z,53.00
2019-04-25T12:16:27.029Z,52.40
